createdAt,value
2018-12-03T00:10:05.850Z,12.3
2018-12-03T00:26:47.068Z,12.6
2018-12-03T00:43:28.722Z,12.6
2018-12-03T01:00:09.919Z,12.6
2018-12-03T01:16:51.237Z,12.6
2018-12-03T01:33:32.702Z,12.6
2018-12-03T01:50:14.008Z,12.6
2018-12-03T02:06:55.449Z,12.6
2018-12-03T02:23:36.864Z,12.6
2018-12-03T02:40:18.313Z,12.6
2018-12-03T02:56:59.828Z,12.6
2018-12-03T03:13:41.300Z,12.6
2018-12-03T03:30:22.637Z,12.6
2018-12-03T03:47:04.037Z,12.6
2018-12-03T04:03:45.488Z,12.6
2018-12-03T04:20:26.936Z,12.6
2018-12-03T04:37:08.759Z,12.3
2018-12-03T04:53:49.500Z,12.3
2018-12-03T05:10:30.745Z,12.3
2018-12-03T05:27:11.770Z,12.3
2018-12-03T05:43:52.966Z,12.3
2018-12-03T06:00:34.119Z,12.3
2018-12-03T06:17:15.278Z,12.3
2018-12-03T06:33:56.467Z,12.0
2018-12-03T06:50:37.094Z,11.4
2018-12-03T07:07:17.672Z,11.7
2018-12-03T07:23:58.441Z,11.7
2018-12-03T07:40:39.450Z,12.0
2018-12-03T07:57:20.130Z,11.7
2018-12-03T08:14:00.728Z,11.7
2018-12-03T08:47:22.654Z,12.0
2018-12-03T09:04:03.347Z,12.0
2018-12-03T09:20:44.474Z,12.3
2018-12-03T09:37:25.559Z,12.3
2018-12-03T09:54:06.613Z,12.3
2018-12-03T10:27:29.137Z,13.0
2018-12-03T10:44:10.865Z,13.0
2018-12-03T11:00:52.624Z,13.0
2018-12-03T11:17:34.618Z,13.0
2018-12-03T11:50:58.753Z,13.0
2018-12-03T12:07:42.495Z,13.3
2018-12-03T12:24:22.523Z,13.3
2018-12-03T12:41:04.713Z,13.3
2018-12-03T12:57:46.213Z,12.6
2018-12-03T13:14:27.791Z,12.6
2018-12-03T13:31:09.128Z,12.6
2018-12-03T13:47:50.747Z,13.0
2018-12-03T14:04:32.352Z,13.0
2018-12-03T14:21:13.805Z,12.6
2018-12-03T14:37:55.135Z,12.3
2018-12-03T14:54:36.259Z,12.3
2018-12-03T15:27:58.346Z,12.0
2018-12-03T15:44:39.027Z,11.7
2018-12-03T16:01:19.645Z,11.4
2018-12-03T16:18:00.167Z,11.4
2018-12-03T16:34:40.901Z,11.4
2018-12-03T16:51:21.688Z,11.4
2018-12-03T17:08:01.879Z,11.4
2018-12-03T17:24:42.434Z,11.4
2018-12-03T17:41:22.972Z,11.4
2018-12-03T17:58:03.483Z,11.0
2018-12-03T18:14:43.845Z,11.4
2018-12-03T18:31:24.505Z,11.4
2018-12-03T19:04:45.935Z,11.7
2018-12-03T19:21:26.974Z,11.7
2018-12-03T19:38:07.248Z,11.7
2018-12-03T19:54:47.827Z,11.7
2018-12-03T20:11:28.188Z,11.7
2018-12-03T20:28:08.705Z,11.4
2018-12-03T20:44:48.679Z,11.4
2018-12-03T21:01:28.858Z,11.4
2018-12-03T21:18:09.066Z,11.4
2018-12-03T21:34:49.290Z,11.4
2018-12-03T21:51:29.902Z,11.4
2018-12-03T22:08:10.181Z,11.4
2018-12-03T22:16:29.718Z,10.4
2018-12-03T22:24:49.067Z,9.8
2018-12-03T22:58:06.698Z,9.4
2018-12-03T23:14:45.153Z,8.5
2018-12-03T23:31:23.186Z,8.8
2018-12-03T23:48:01.193Z,8.5
